createdAt,value
2022-09-02T04:38:31.651Z,3.78
2022-09-02T04:43:34.648Z,3.60
2022-09-02T04:48:37.470Z,7.03
2022-09-02T04:53:40.887Z,5.93
2022-09-02T04:58:44.561Z,5.63
2022-09-02T05:03:49.407Z,4.82
2022-09-02T05:08:51.841Z,3.80
2022-09-02T05:13:56.875Z,4.35
2022-09-02T05:19:00.712Z,5.63
2022-09-02T05:24:11.758Z,4.90
2022-09-02T05:29:14.348Z,4.05
2022-09-02T05:34:18.789Z,3.33
2022-09-02T05:39:21.997Z,5.10
2022-09-02T05:44:25.132Z,2.67
2022-09-02T05:49:27.762Z,4.50
2022-09-02T05:54:40.084Z,3.40
2022-09-02T05:59:48.031Z,5.10
2022-09-02T06:04:54.777Z,4.15
2022-09-02T06:09:58.291Z,3.35
2022-09-02T06:15:03.000Z,4.47
2022-09-02T06:20:05.956Z,5.28
2022-09-02T06:25:09.347Z,2.47
2022-09-02T06:30:12.724Z,2.95
2022-09-02T06:35:16.200Z,6.82
2022-09-02T06:40:19.553Z,3.03
2022-09-02T06:45:26.979Z,2.90
2022-09-02T06:50:32.701Z,2.08
2022-09-02T06:55:37.932Z,4.60
2022-09-02T07:00:42.581Z,4.32
2022-09-02T07:05:46.239Z,2.85
2022-09-02T07:10:49.761Z,8.65
2022-09-02T07:15:53.015Z,4.07
2022-09-02T07:20:56.032Z,4.45
2022-09-02T07:25:58.588Z,5.18
2022-09-02T07:31:01.558Z,4.25
2022-09-02T07:36:12.312Z,4.20
2022-09-02T07:41:15.702Z,5.55
2022-09-02T07:46:19.128Z,3.33
2022-09-02T07:51:24.090Z,5.20
2022-09-02T07:56:32.047Z,4.88
2022-09-02T08:01:35.266Z,3.58
2022-09-02T08:06:38.512Z,5.47
2022-09-02T08:11:44.369Z,3.85
2022-09-02T08:16:47.594Z,3.83
2022-09-02T08:21:51.254Z,4.75
2022-09-02T08:26:53.521Z,4.60
2022-09-02T08:31:55.808Z,11.52
2022-09-02T08:36:58.118Z,5.35
2022-09-02T08:42:32.522Z,5.43
2022-09-02T08:47:37.231Z,2.20
2022-09-02T08:52:45.964Z,4.00
2022-09-02T08:57:49.671Z,2.30
2022-09-02T09:03:24.225Z,5.90
2022-09-02T09:08:45.181Z,3.85
2022-09-02T09:13:56.250Z,3.42
2022-09-02T09:19:09.031Z,3.92
2022-09-02T09:24:32.877Z,3.67
2022-09-02T09:29:36.431Z,4.88
2022-09-02T09:34:54.165Z,4.57
2022-09-02T09:39:56.454Z,4.80
2022-09-02T09:44:58.754Z,6.63
2022-09-02T09:50:17.212Z,3.03
2022-09-02T09:55:24.983Z,2.83
2022-09-02T10:00:34.420Z,2.03
2022-09-02T10:05:40.256Z,2.55
2022-09-02T10:10:57.033Z,3.53
2022-09-02T10:16:14.405Z,4.05
2022-09-02T10:21:45.204Z,2.78
2022-09-02T10:26:53.922Z,1.98
2022-09-02T10:32:23.983Z,2.28
2022-09-02T10:37:39.476Z,3.03
2022-09-02T10:42:58.516Z,2.03
2022-09-02T10:48:25.112Z,1.48
2022-09-02T10:53:43.573Z,6.93
2022-09-02T10:59:13.128Z,4.30
2022-09-02T11:04:37.784Z,3.85
2022-09-02T11:10:12.392Z,0.80
2022-09-02T11:15:23.444Z,1.50
2022-09-02T11:20:36.537Z,1.17
2022-09-02T11:25:48.213Z,1.65
2022-09-02T11:31:03.004Z,2.55
2022-09-02T11:36:05.401Z,2.70
2022-09-02T11:46:36.782Z,1.73
2022-09-02T11:51:54.496Z,3.45
2022-09-02T11:57:01.917Z,5.32
2022-09-02T12:07:09.440Z,1.55
2022-09-02T12:12:37.413Z,1.40
2022-09-02T12:17:46.263Z,1.30
2022-09-02T12:22:49.092Z,2.38
2022-09-02T12:28:09.003Z,1.67
2022-09-02T12:33:12.594Z,2.28
2022-09-02T12:38:15.364Z,6.28
2022-09-02T12:43:33.371Z,1.25
2022-09-02T12:48:45.876Z,1.45
2022-09-02T12:53:50.734Z,0.98
2022-09-02T12:58:58.903Z,2.90
2022-09-02T13:04:32.480Z,3.60
2022-09-02T13:09:46.677Z,1.50
2022-09-02T13:15:01.623Z,1.00
2022-09-02T13:20:23.289Z,1.48
2022-09-02T13:25:43.573Z,3.22
2022-09-02T13:30:52.079Z,1.80
2022-09-02T13:35:57.087Z,1.65
2022-09-02T13:40:59.729Z,3.28
2022-09-02T13:46:03.029Z,5.07
2022-09-02T13:51:13.583Z,2.55
2022-09-02T13:56:17.616Z,3.67
2022-09-02T14:01:34.383Z,1.27
2022-09-02T14:06:42.412Z,6.57
2022-09-02T14:11:46.521Z,1.58
2022-09-02T14:16:49.045Z,2.17
2022-09-02T14:21:54.426Z,2.83
2022-09-02T14:26:58.841Z,3.15
2022-09-02T14:32:09.899Z,3.42
2022-09-02T14:37:22.706Z,1.23
2022-09-02T14:42:29.146Z,1.60
2022-09-02T14:47:38.884Z,6.13
2022-09-02T14:57:48.431Z,3.25
2022-09-02T15:02:57.242Z,7.28
2022-09-02T15:07:59.483Z,1.80
2022-09-02T15:13:02.106Z,1.40
2022-09-02T15:18:05.389Z,0.93
2022-09-02T15:23:11.387Z,1.25
2022-09-02T15:28:13.665Z,1.33
2022-09-02T15:33:17.480Z,1.42
2022-09-02T15:38:20.154Z,2.17
2022-09-02T15:43:23.283Z,2.83
2022-09-02T15:48:25.635Z,1.15
2022-09-02T15:53:27.992Z,1.60
2022-09-02T15:58:30.786Z,2.20
2022-09-02T16:03:33.045Z,1.20
2022-09-02T16:08:35.601Z,3.10
2022-09-02T16:13:38.042Z,4.35
2022-09-02T16:18:41.287Z,3.83
2022-09-02T16:23:43.764Z,1.17
2022-09-02T16:28:46.355Z,3.50
2022-09-02T16:34:24.188Z,4.65
2022-09-02T16:39:26.514Z,1.70
2022-09-02T16:44:29.328Z,5.00
2022-09-02T16:49:32.105Z,3.65
2022-09-02T16:54:37.452Z,1.25
2022-09-02T16:59:43.168Z,3.40
2022-09-02T17:04:45.418Z,2.35
2022-09-02T17:09:47.686Z,1.77
2022-09-02T17:14:50.044Z,5.25
2022-09-02T17:19:52.281Z,2.05
2022-09-02T17:24:55.129Z,4.07
2022-09-02T17:29:59.939Z,1.23
2022-09-02T17:35:02.269Z,6.40
2022-09-02T17:40:07.217Z,1.00
2022-09-02T17:45:09.892Z,4.97
2022-09-02T17:50:15.990Z,2.95
2022-09-02T17:55:20.295Z,2.70
2022-09-02T18:00:22.705Z,2.05
2022-09-02T18:05:41.972Z,4.35
2022-09-02T18:10:57.457Z,1.85
2022-09-02T18:16:22.175Z,2.80
2022-09-02T18:22:19.369Z,5.07
2022-09-02T18:27:44.882Z,6.03
2022-09-02T18:33:07.125Z,5.88
2022-09-02T18:38:28.553Z,6.97
2022-09-02T18:43:52.642Z,5.15
2022-09-02T18:48:59.677Z,5.88
2022-09-02T18:54:12.263Z,3.83
2022-09-02T18:59:28.527Z,5.07
2022-09-02T19:04:34.885Z,5.72
2022-09-02T19:09:37.191Z,5.65
2022-09-02T19:14:42.653Z,5.00
2022-09-02T19:19:44.912Z,6.00
2022-09-02T19:24:51.560Z,8.02
2022-09-02T19:30:01.464Z,5.10
2022-09-02T19:35:09.885Z,5.45
2022-09-02T19:40:14.824Z,8.45
2022-09-02T19:45:17.101Z,5.95
2022-09-02T19:50:19.359Z,6.72
2022-09-02T19:55:21.743Z,10.13
2022-09-02T20:00:24.439Z,6.28
2022-09-02T20:05:26.894Z,8.27
2022-09-02T20:10:29.949Z,9.75
2022-09-02T20:15:36.716Z,8.60
2022-09-02T20:20:46.345Z,7.03
2022-09-02T20:26:07.441Z,8.23
2022-09-02T20:31:35.345Z,10.45
2022-09-02T20:37:11.951Z,8.43
2022-09-02T20:42:26.332Z,9.00
2022-09-02T20:47:58.401Z,8.50
2022-09-02T20:53:19.215Z,10.30
2022-09-02T21:03:56.037Z,13.63
2022-09-02T21:09:10.033Z,12.63
2022-09-02T21:14:24.331Z,11.85
2022-09-02T21:19:36.404Z,9.48
2022-09-02T21:25:03.474Z,14.00
2022-09-02T21:30:10.123Z,13.02
2022-09-02T21:35:18.786Z,11.30
2022-09-02T21:40:30.144Z,12.15
2022-09-02T21:45:51.192Z,11.82
2022-09-02T21:50:58.617Z,11.85
2022-09-02T21:56:21.105Z,11.18
